Time;durP1;ratioP1;P1;durP2;ratioP2;P2;SDS_P1;SDS_P2;PMS_P1;PMS_P2;Temp;Humidity;BMP_temperature;BMP_pressure;BME280_temperature;BME280_humidity;BME280_pressure;Samples;Min_cycle;Max_cycle;Signal;HPM_P1;HPM_P2
2024/02/16 00:00:59;;;;;;;;;;;;;;;;;;5065245;28;19921;-86
2024/02/16 00:03:26;;;;;;;;;;;;;;;;;;5065146;28;20288;-85
2024/02/16 00:05:53;;;;;;;;;;;;;;;;;;5067918;28;19991;-84
2024/02/16 00:08:21;;;;;;;;;;;10.30;99.90;;;;;;5079688;28;19948;-84
2024/02/16 00:10:48;;;;;;;;;;;10.30;99.90;;;;;;5079922;28;19904;-83
2024/02/16 00:13:15;;;;;;;;;;;10.20;99.90;;;;;;5078388;28;19963;-85
2024/02/16 00:15:42;;;;;;;;;;;10.20;99.90;;;;;;5063363;28;19920;-86
2024/02/16 00:18:08;;;;;;;;;;;10.10;99.90;;;;;;5062624;28;19921;-86
2024/02/16 00:20:35;;;;;;;;;;;10.00;99.90;;;;;;5067133;28;19921;-86
2024/02/16 00:23:02;;;;;;;;;;;9.70;99.90;;;;;;5062907;28;20344;-86
2024/02/16 00:25:30;;;;;;;;;;;10.00;99.90;;;;;;5061820;28;20008;-86
2024/02/16 00:27:56;;;;;;;;;;;9.90;99.90;;;;;;5062078;28;19984;-86
2024/02/16 00:30:23;;;;;;;;;;;9.90;99.90;;;;;;5070372;28;19963;-85
2024/02/16 00:32:50;;;;;;;;;;;9.90;99.90;;;;;;5079983;28;19920;-85
2024/02/16 00:35:17;;;;;;;;;;;9.80;99.90;;;;;;5069017;28;19967;-85
2024/02/16 07:42:44;;;;;;;;;;;9.50;1.00;;;;;;5597427;22;19921;-88
2024/02/16 07:45:11;;;;;;;;;;;9.60;1.00;;;;;;5077636;28;19944;-89
2024/02/16 07:47:40;;;;;;;;;;;9.60;1.00;;;;;;5061154;28;19951;-87
2024/02/16 07:50:07;;;;;;;;;;;9.70;1.00;;;;;;5060976;28;20005;-87
2024/02/16 07:52:34;;;;;;;;;;;9.70;1.00;;;;;;5060585;28;19941;-87
2024/02/16 07:55:01;;;;;;;;;;;9.70;1.00;;;;;;5076508;22;19948;-84
2024/02/16 07:57:27;;;;;;;;;;;9.80;1.00;;;;;;5062938;28;19958;-84
2024/02/16 07:59:55;;;;;;;;;;;9.80;1.00;;;;;;5062513;28;19921;-85
2024/02/16 08:02:22;;;;;;;;;;;9.90;1.00;;;;;;5061782;28;19943;-85
2024/02/16 08:04:49;;;;;;;;;;;9.90;1.00;;;;;;5062715;28;20011;-84
2024/02/16 08:07:16;;;;;;;;;;;10.00;1.00;;;;;;5062770;28;20338;-86
2024/02/16 08:09:44;;;;;;;;;;;10.10;1.00;;;;;;5063839;28;19938;-86
2024/02/16 08:12:11;;;;;;;;;;;10.30;1.00;;;;;;5063660;28;20356;-85
2024/02/16 08:14:38;;;;;;;;;;;10.20;1.00;;;;;;5062391;28;20012;-86
2024/02/16 08:17:07;;;;;;;;;;;10.30;1.00;;;;;;5062862;28;19957;-86
2024/02/16 08:22:01;;;;;;;;;;;10.40;1.00;;;;;;5079688;28;19919;-87
2024/02/16 08:24:28;;;;;;;;;;;10.40;1.00;;;;;;5080233;28;19969;-85
2024/02/16 08:26:56;;;;;;;;;;;10.50;1.00;;;;;;5077572;28;19966;-85
2024/02/16 08:29:22;;;;;;;;;;;10.60;1.00;;;;;;5076114;28;19970;-84
2024/02/16 08:31:50;;;;;;;;;;;10.60;1.00;;;;;;5078578;28;19996;-84
2024/02/16 08:34:36;;;;;;;;;;;10.80;99.90;;;;;;5083198;22;19956;-89
2024/02/16 08:37:05;;;;;;;;;;;10.70;99.90;;;;;;5068479;28;19944;-88
2024/02/16 08:39:32;;;;;;;;;;;10.70;99.90;;;;;;5065987;28;20308;-86
2024/02/16 08:41:59;;;;;;;;;;;10.80;99.90;;;;;;5066892;28;20405;-86
2024/02/16 08:44:27;;;;;;;;;;;10.80;99.90;;;;;;5065794;28;19962;-87
2024/02/16 11:30:39;;;;;;;;;;;;;;;;;;5841075;22;20349;-84
2024/02/16 11:33:06;;;;;;;;;;;;;;;;;;5078695;28;19904;-84
2024/02/16 11:35:33;;;;;;;;;;;;;;;;;;5072727;28;19950;-86
2024/02/16 11:38:00;;;;;;;;;;;;;;;;;;5078178;28;20000;-85
2024/02/16 11:40:27;;;;;;;;;;;;;;;;;;5078479;28;19946;-86
2024/02/16 11:42:55;;;;;;;;;;;;;;;;;;5081510;28;19939;-86
2024/02/16 11:48:07;;;;;;;;;;;;;;;;;;4826292;26;19934;-87
2024/02/16 11:50:34;;;;;;;;;;;;;;;;;;5100981;28;19925;-88
2024/02/16 11:56:13;;;;;;;;;;;14.70;1.00;;;;;;5096215;28;19916;-87
2024/02/16 11:58:43;;;;;;;;;;;15.50;1.00;;;;;;5094281;28;19958;-87
2024/02/16 12:01:21;;;;;;;;;;;14.80;1.00;;;;;;5086251;28;20035;-87
2024/02/16 12:03:49;;;;;;;;;;;14.60;1.00;;;;;;5085544;28;19981;-87
2024/02/16 12:06:21;;;;;;;;;;;15.10;1.00;;;;;;5084659;28;20001;-88
2024/02/16 12:08:48;;;;;;;;;;;15.10;99.90;;;;;;5084971;28;20008;-87
2024/02/16 12:11:23;;;;;;;;;;;15.20;99.90;;;;;;5089108;28;19939;-88
2024/02/16 12:13:55;;;;;;;;;;;15.30;99.90;;;;;;5099520;28;19922;-87
2024/02/16 12:16:40;;;;;;;;;;;;;;;;;;;;;
2024/02/16 12:19:08;;;;;;;;;;;15.20;99.90;;;;;;5101211;28;19962;-88
2024/02/16 12:21:35;;;;;;;;;;;15.40;99.90;;;;;;5101010;28;19983;-86
2024/02/16 12:24:02;;;;;;;;;;;15.10;99.90;;;;;;5101051;28;19993;-85
2024/02/16 12:26:33;;;;;;;;;;;16.10;99.90;;;;;;5100933;28;19965;-86
2024/02/16 12:29:02;;;;;;;;;;;15.50;99.90;;;;;;5101119;28;19935;-86
2024/02/16 12:31:31;;;;;;;;;;;14.90;99.90;;;;;;5101017;28;19948;-86
2024/02/16 12:34:03;;;;;;;;;;;15.10;99.90;;;;;;5100570;28;19921;-87
2024/02/16 12:36:33;;;;;;;;;;;15.70;99.90;;;;;;5094504;28;19960;-87
2024/02/16 12:39:01;;;;;;;;;;;15.20;99.90;;;;;;5090307;28;20308;-87
2024/02/16 12:41:30;;;;;;;;;;;15.00;99.90;;;;;;5089498;28;20459;-87
2024/02/16 12:44:01;;;;;;;;;;;14.90;99.90;;;;;;5086116;28;19940;-86
2024/02/16 12:46:28;;;;;;;;;;;16.10;99.90;;;;;;5086338;28;19959;-86
2024/02/16 12:48:55;;;;;;;;;;;15.30;99.90;;;;;;5084537;28;19939;-88
2024/02/16 12:51:26;;;;;;;;;;;14.80;99.90;;;;;;5086382;28;19982;-88
2024/02/16 12:56:36;;;;;;;;;;;16.00;99.90;;;;;;5084027;28;20277;-88
2024/02/16 12:59:12;;;;;;;;;;;15.40;99.90;;;;;;5096983;28;19942;-88
2024/02/16 13:01:42;;;;;;;;;;;15.50;99.90;;;;;;5092523;28;19932;-87
2024/02/16 13:04:09;;;;;;;;;;;16.10;99.90;;;;;;5094652;28;19983;-87
2024/02/16 13:06:37;;;;;;;;;;;15.60;99.90;;;;;;5090975;28;19979;-87
2024/02/16 13:09:05;;;;;;;;;;;15.30;99.90;;;;;;5089788;28;19946;-86
2024/02/16 13:11:40;;;;;;;;;;;15.10;99.90;;;;;;5091422;28;19938;-88
2024/02/16 13:14:11;;;;;;;;;;;16.30;99.90;;;;;;5084905;28;20008;-88
2024/02/16 13:16:39;;;;;;;;;;;15.50;99.90;;;;;;5084148;28;19981;-88
2024/02/16 13:19:08;;;;;;;;;;;15.40;99.90;;;;;;5087312;28;19908;-87
2024/02/16 13:21:35;;;;;;;;;;;16.60;99.90;;;;;;5096925;28;19919;-87
2024/02/16 13:24:05;;;;;;;;;;;15.20;99.90;;;;;;5097245;28;20010;-87
2024/02/16 13:26:40;;;;;;;;;;;15.40;99.90;;;;;;5094958;28;19944;-87
2024/02/16 13:29:09;;;;;;;;;;;15.40;99.90;;;;;;5094668;28;19940;-87
2024/02/16 13:31:37;;;;;;;;;;;15.50;99.90;;;;;;5091658;28;19976;-87
2024/02/16 13:34:06;;;;;;;;;;;16.00;99.90;;;;;;5092230;28;19952;-87
2024/02/16 13:36:36;;;;;;;;;;;15.40;99.90;;;;;;5092812;28;20369;-87
2024/02/16 13:39:05;;;;;;;;;;;15.30;99.90;;;;;;5091819;28;20265;-87
2024/02/16 13:41:32;;;;;;;;;;;15.30;99.90;;;;;;5092005;28;19938;-88
2024/02/16 13:44:02;;;;;;;;;;;15.50;99.90;;;;;;5091191;28;20291;-87
2024/02/16 13:46:31;;;;;;;;;;;15.20;99.90;;;;;;5090758;28;19989;-87
2024/02/16 13:49:02;;;;;;;;;;;16.00;99.90;;;;;;5091226;28;20369;-87
2024/02/16 13:51:31;;;;;;;;;;;15.30;99.90;;;;;;5091227;28;19944;-87
2024/02/16 13:54:10;;;;;;;;;;;15.30;99.90;;;;;;5091272;28;19926;-87
2024/02/16 13:56:40;;;;;;;;;;;15.30;99.90;;;;;;5090059;28;19959;-88
2024/02/16 13:59:09;;;;;;;;;;;15.30;99.90;;;;;;5089747;28;19950;-87
2024/02/16 14:01:43;;;;;;;;;;;15.20;99.90;;;;;;5088247;28;20018;-88
2024/02/16 14:04:13;;;;;;;;;;;15.80;99.90;;;;;;5087670;28;19944;-87
2024/02/16 14:06:44;;;;;;;;;;;15.50;99.90;;;;;;5089086;28;19954;-88
2024/02/16 14:09:20;;;;;;;;;;;14.90;99.90;;;;;;5090265;28;19924;-87
2024/02/16 14:11:51;;;;;;;;;;;15.50;99.90;;;;;;5092732;28;19967;-87
2024/02/16 14:14:23;;;;;;;;;;;15.70;99.90;;;;;;5093036;28;20304;-87
2024/02/16 14:16:58;;;;;;;;;;;15.60;99.90;;;;;;5092945;28;19942;-88
2024/02/16 14:19:33;;;;;;;;;;;15.60;99.90;;;;;;5097390;28;19946;-86
2024/02/16 14:22:05;;;;;;;;;;;15.60;99.90;;;;;;5098661;28;19966;-87
2024/02/16 14:24:40;;;;;;;;;;;13.40;99.90;;;;;;5098014;28;19942;-88
2024/02/16 14:27:09;;;;;;;;;;;15.10;99.90;;;;;;5078131;28;19904;-87
2024/02/16 14:29:43;;;;;;;;;;;15.10;99.90;;;;;;5077493;28;20042;-87
2024/02/16 14:32:26;;;;;;;;;;;15.00;99.90;;;;;;5075825;28;19988;-88
2024/02/16 14:34:54;;;;;;;;;;;15.00;99.90;;;;;;5075606;28;19921;-87
2024/02/16 14:37:24;;;;;;;;;;;15.60;99.90;;;;;;5074536;28;19950;-88
2024/02/16 14:39:57;;;;;;;;;;;15.10;99.90;;;;;;5068907;28;19920;-87
2024/02/16 14:42:24;;;;;;;;;;;15.30;99.90;;;;;;5066858;28;19945;-88
2024/02/16 14:44:59;;;;;;;;;;;14.70;99.90;;;;;;5065735;28;19969;-87
2024/02/16 14:47:31;;;;;;;;;;;15.60;99.90;;;;;;5062685;28;20005;-87
2024/02/16 14:50:03;;;;;;;;;;;15.20;99.90;;;;;;5064753;28;19946;-87
2024/02/16 14:52:30;;;;;;;;;;;14.90;99.90;;;;;;5065223;28;19927;-88
2024/02/16 14:55:01;;;;;;;;;;;14.90;99.90;;;;;;5064623;28;19971;-87
2024/02/16 14:57:28;;;;;;;;;;;15.00;99.90;;;;;;5065231;28;19981;-87
2024/02/16 15:00:10;;;;;;;;;;;14.90;99.90;;;;;;5063704;28;19987;-86
2024/02/16 15:02:43;;;;;;;;;;;14.60;99.90;;;;;;5063267;28;19920;-87
2024/02/16 15:05:12;;;;;;;;;;;14.90;99.90;;;;;;5063644;28;20350;-87
2024/02/16 15:07:42;;;;;;;;;;;14.90;99.90;;;;;;5065939;28;20412;-87
2024/02/16 15:10:13;;;;;;;;;;;16.00;99.90;;;;;;5064825;28;19969;-87
2024/02/16 15:12:42;;;;;;;;;;;14.90;99.90;;;;;;5068060;28;19959;-87
2024/02/16 15:15:12;;;;;;;;;;;14.80;99.90;;;;;;5066492;28;19943;-87
2024/02/16 15:17:39;;;;;;;;;;;14.80;99.90;;;;;;5072128;28;19952;-87
2024/02/16 15:20:10;;;;;;;;;;;14.70;1.00;;;;;;5069876;28;19955;-88
2024/02/16 15:22:36;;;;;;;;;;;15.00;1.00;;;;;;5066754;28;19924;-87
2024/02/16 15:25:04;;;;;;;;;;;14.70;1.00;;;;;;5067464;28;20323;-86
2024/02/16 15:27:33;;;;;;;;;;;14.60;1.00;;;;;;5065151;28;19990;-87
2024/02/16 15:30:02;;;;;;;;;;;14.70;1.00;;;;;;5064928;28;19965;-87
2024/02/16 15:32:31;;;;;;;;;;;14.70;1.00;;;;;;5065265;28;20423;-87
2024/02/16 15:35:03;;;;;;;;;;;14.70;1.00;;;;;;5066967;28;20023;-87
2024/02/16 15:37:34;;;;;;;;;;;15.30;1.00;;;;;;5075707;28;19982;-86
2024/02/16 15:40:02;;;;;;;;;;;14.80;1.00;;;;;;5076318;28;20005;-88
2024/02/16 15:42:30;;;;;;;;;;;14.60;1.00;;;;;;5067764;28;19921;-88
2024/02/16 15:44:58;;;;;;;;;;;14.50;29.10;;;;;;5079708;28;19989;-87
2024/02/16 15:47:25;;;;;;;;;;;14.50;1.00;;;;;;5080179;28;19920;-88
2024/02/16 15:49:52;;;;;;;;;;;14.70;1.00;;;;;;5081135;28;19943;-87
2024/02/16 15:52:22;;;;;;;;;;;14.50;1.00;;;;;;5080709;28;20060;-86
2024/02/16 15:54:50;;;;;;;;;;;14.40;1.00;;;;;;5081226;28;19904;-86
2024/02/16 15:57:18;;;;;;;;;;;14.40;1.00;;;;;;5080512;28;19939;-88
2024/02/16 15:59:46;;;;;;;;;;;14.40;1.00;;;;;;5075689;28;19955;-87
2024/02/16 16:02:37;;;;;;;;;;;14.40;1.00;;;;;;5066601;28;20014;-88
2024/02/16 16:05:29;;;;;;;;;;;;;;;;;;;;;
2024/02/16 16:07:56;;;;;;;;;;;14.30;99.90;;;;;;5066284;28;20008;-87
2024/02/16 16:10:25;;;;;;;;;;;13.20;99.90;;;;;;5065542;28;19921;-87
2024/02/16 16:12:52;;;;;;;;;;;14.50;1.00;;;;;;5062995;28;20316;-88
2024/02/16 16:15:19;;;;;;;;;;;14.20;85.90;;;;;;5069527;28;19946;-87
2024/02/16 16:17:48;;;;;;;;;;;14.20;1.00;;;;;;5078450;28;19962;-87
2024/02/16 16:20:17;;;;;;;;;;;13.10;75.80;;;;;;5070252;28;20354;-88
2024/02/16 16:22:44;;;;;;;;;;;14.10;99.90;;;;;;5068756;28;19947;-88
2024/02/16 16:25:17;;;;;;;;;;;14.10;1.00;;;;;;5077401;28;19921;-88
2024/02/16 16:27:50;;;;;;;;;;;14.00;1.00;;;;;;5072210;28;20007;-87
2024/02/16 16:30:20;;;;;;;;;;;14.30;99.90;;;;;;5069352;28;19921;-87
2024/02/16 16:32:51;;;;;;;;;;;14.00;99.90;;;;;;5073503;28;19942;-87
2024/02/16 16:35:19;;;;;;;;;;;14.10;1.00;;;;;;5071866;28;19946;-87
2024/02/16 16:37:52;;;;;;;;;;;14.80;1.00;;;;;;5068109;28;19974;-87
2024/02/16 16:40:27;;;;;;;;;;;14.90;99.90;;;;;;5068971;28;20145;-88
2024/02/16 16:45:40;;;;;;;;;;;13.90;1.00;;;;;;5068166;28;19951;-88
2024/02/16 16:48:09;;;;;;;;;;;13.90;99.90;;;;;;5067063;28;19961;-87
2024/02/16 16:50:37;;;;;;;;;;;13.90;99.90;;;;;;5065894;28;19994;-87
2024/02/16 16:53:04;;;;;;;;;;;13.90;99.90;;;;;;5073205;28;20420;-87
2024/02/16 16:55:31;;;;;;;;;;;14.40;99.90;;;;;;5067164;28;19921;-87
2024/02/16 16:58:00;;;;;;;;;;;13.30;99.90;;;;;;5066898;28;19991;-88
2024/02/16 17:00:31;;;;;;;;;;;13.80;1.00;;;;;;5072288;28;19946;-87
2024/02/16 17:03:10;;;;;;;;;;;14.00;99.90;;;;;;5069276;28;19941;-87
2024/02/16 17:05:45;;;;;;;;;;;13.90;99.90;;;;;;5065794;28;19950;-87
2024/02/16 17:08:17;;;;;;;;;;;13.90;1.00;;;;;;5064815;28;19960;-88
2024/02/16 17:10:46;;;;;;;;;;;13.90;99.90;;;;;;5064992;28;19943;-87
2024/02/16 17:13:17;;;;;;;;;;;13.80;1.00;;;;;;5066394;28;19959;-87
2024/02/16 17:15:44;;;;;;;;;;;13.30;99.90;;;;;;5072700;28;19954;-87
2024/02/16 17:18:14;;;;;;;;;;;13.80;1.00;;;;;;5078438;28;19958;-87
2024/02/16 17:20:41;;;;;;;;;;;13.80;1.00;;;;;;5077998;28;19973;-87
2024/02/16 17:23:08;;;;;;;;;;;13.90;1.00;;;;;;5073495;28;20006;-88
2024/02/16 17:25:36;;;;;;;;;;;13.80;99.90;;;;;;5066469;28;20400;-88
2024/02/16 17:28:21;;;;;;;;;;;13.80;1.00;;;;;;5065652;28;20407;-88
2024/02/16 17:30:49;;;;;;;;;;;13.50;1.00;;;;;;5064462;28;19927;-88
2024/02/16 17:33:27;;;;;;;;;;;14.10;1.00;;;;;;5069147;28;19921;-88
2024/02/16 17:35:57;;;;;;;;;;;13.70;99.90;;;;;;5065863;28;20321;-87
2024/02/16 17:38:24;;;;;;;;;;;13.40;99.90;;;;;;5065781;28;19921;-88
2024/02/16 17:40:51;;;;;;;;;;;13.70;1.00;;;;;;5064063;28;19975;-87
2024/02/16 17:43:25;;;;;;;;;;;12.20;99.90;;;;;;5064094;28;19925;-88
2024/02/16 17:45:53;;;;;;;;;;;14.10;97.70;;;;;;5101395;22;19944;-87
2024/02/16 17:48:20;;;;;;;;;;;13.50;99.90;;;;;;5038709;28;19937;-87
2024/02/16 17:50:47;;;;;;;;;;;13.80;1.00;;;;;;5037197;28;19937;-86
2024/02/16 17:53:13;;;;;;;;;;;13.30;82.80;;;;;;5035690;28;20015;-88
2024/02/16 17:55:40;;;;;;;;;;;13.80;99.90;;;;;;5034239;28;19940;-86
2024/02/16 17:58:07;;;;;;;;;;;13.70;99.90;;;;;;5052452;28;20023;-88
2024/02/16 18:00:33;;;;;;;;;;;13.80;99.90;;;;;;5052482;28;19928;-87
2024/02/16 18:03:01;;;;;;;;;;;14.10;1.00;;;;;;5051592;28;19952;-88
2024/02/16 18:05:28;;;;;;;;;;;13.50;99.90;;;;;;5050860;28;19928;-88
2024/02/16 18:07:55;;;;;;;;;;;13.50;99.90;;;;;;5054703;28;20412;-88
2024/02/16 18:10:21;;;;;;;;;;;13.40;99.90;;;;;;5059054;28;20031;-87
2024/02/16 18:12:48;;;;;;;;;;;13.30;1.00;;;;;;5053844;28;19964;-87
2024/02/16 18:15:15;;;;;;;;;;;13.30;1.00;;;;;;5058648;28;19976;-88
2024/02/16 18:17:41;;;;;;;;;;;13.30;1.00;;;;;;5053787;28;20030;-87
2024/02/16 18:20:11;;;;;;;;;;;13.30;1.00;;;;;;5055061;28;19962;-88
2024/02/16 18:22:37;;;;;;;;;;;13.30;1.00;;;;;;5055200;28;19964;-87
2024/02/16 18:25:04;;;;;;;;;;;13.40;1.00;;;;;;5055154;28;19968;-87
2024/02/16 18:27:31;;;;;;;;;;;13.40;1.00;;;;;;5050411;28;20332;-88
2024/02/16 18:29:58;;;;;;;;;;;13.50;99.90;;;;;;5049568;28;19921;-86
2024/02/16 18:32:24;;;;;;;;;;;13.40;99.90;;;;;;5047461;28;20005;-88
2024/02/16 18:34:51;;;;;;;;;;;13.50;99.90;;;;;;5046481;28;19967;-87
2024/02/16 18:37:19;;;;;;;;;;;13.50;99.90;;;;;;5052293;28;19987;-88
2024/02/16 18:39:46;;;;;;;;;;;13.80;99.90;;;;;;5057303;28;19924;-88
2024/02/16 18:42:12;;;;;;;;;;;13.50;99.90;;;;;;5048048;28;20031;-87
2024/02/16 18:44:40;;;;;;;;;;;13.50;99.90;;;;;;5046924;28;19944;-88
2024/02/16 18:47:07;;;;;;;;;;;13.50;99.90;;;;;;5055217;28;19905;-89
2024/02/16 18:49:34;;;;;;;;;;;13.70;99.90;;;;;;5060109;28;19948;-87
2024/02/16 18:52:00;;;;;;;;;;;13.60;99.90;;;;;;5065457;28;19905;-88
2024/02/16 18:54:28;;;;;;;;;;;13.50;99.90;;;;;;5058336;28;19959;-86
2024/02/16 18:56:55;;;;;;;;;;;13.60;99.90;;;;;;5054471;28;19955;-88
2024/02/16 18:59:22;;;;;;;;;;;13.60;1.00;;;;;;5061379;28;19959;-87
2024/02/16 19:01:49;;;;;;;;;;;13.50;1.00;;;;;;5057009;28;19959;-86
2024/02/16 19:04:16;;;;;;;;;;;13.50;1.00;;;;;;5053255;28;19921;-88
2024/02/16 19:06:43;;;;;;;;;;;13.40;1.00;;;;;;5052519;28;19959;-88
2024/02/16 19:09:10;;;;;;;;;;;13.40;1.00;;;;;;5063195;28;20005;-89
2024/02/16 19:11:38;;;;;;;;;;;13.40;1.00;;;;;;5054729;28;20422;-87
2024/02/16 19:14:04;;;;;;;;;;;13.50;1.00;;;;;;5055172;28;19931;-87
2024/02/16 19:16:31;;;;;;;;;;;13.40;1.00;;;;;;5055036;28;19955;-86
2024/02/16 19:18:58;;;;;;;;;;;13.30;1.00;;;;;;5052921;28;19939;-87
2024/02/16 19:21:24;;;;;;;;;;;13.40;1.00;;;;;;5055589;28;20015;-87
2024/02/16 19:23:51;;;;;;;;;;;13.30;1.00;;;;;;5056653;28;19948;-87
2024/02/16 19:26:18;;;;;;;;;;;13.30;1.00;;;;;;5059138;28;19959;-88
2024/02/16 19:28:47;;;;;;;;;;;13.50;1.00;;;;;;5064112;28;19939;-87
2024/02/16 19:31:13;;;;;;;;;;;13.90;1.00;;;;;;5057944;28;19950;-87
2024/02/16 19:33:40;;;;;;;;;;;13.40;1.00;;;;;;5058410;28;19945;-87
2024/02/16 19:36:08;;;;;;;;;;;13.50;1.00;;;;;;5062091;28;19943;-87
2024/02/16 19:38:35;;;;;;;;;;;13.30;35.10;;;;;;5064771;28;19951;-86
2024/02/16 19:41:03;;;;;;;;;;;13.20;94.30;;;;;;5064913;28;20003;-86
2024/02/16 19:43:30;;;;;;;;;;;13.10;99.90;;;;;;5059103;28;19927;-86
2024/02/16 19:45:58;;;;;;;;;;;13.50;98.30;;;;;;5055876;28;19999;-86
2024/02/16 19:48:24;;;;;;;;;;;13.40;99.90;;;;;;5054218;28;19920;-88
2024/02/16 19:50:51;;;;;;;;;;;13.20;84.10;;;;;;5053899;28;19956;-88
2024/02/16 19:53:18;;;;;;;;;;;13.40;92.60;;;;;;5054387;28;19931;-87
2024/02/16 19:55:46;;;;;;;;;;;13.30;65.00;;;;;;5055078;28;19950;-87
2024/02/16 19:58:12;;;;;;;;;;;13.40;94.60;;;;;;5056445;28;19943;-87
2024/02/16 20:00:39;;;;;;;;;;;13.30;92.80;;;;;;5055205;28;19966;-87
2024/02/16 20:03:07;;;;;;;;;;;13.40;99.90;;;;;;5051507;28;19939;-87
2024/02/16 20:05:34;;;;;;;;;;;13.40;99.90;;;;;;5049420;28;19946;-88
2024/02/16 20:08:00;;;;;;;;;;;13.30;99.90;;;;;;5049797;28;19920;-87
2024/02/16 20:10:27;;;;;;;;;;;13.30;99.90;;;;;;5050173;28;19961;-87
2024/02/16 20:12:54;;;;;;;;;;;13.30;99.90;;;;;;5050961;28;20030;-88
2024/02/16 20:15:22;;;;;;;;;;;13.40;99.90;;;;;;5048344;28;20057;-90
2024/02/16 20:17:50;;;;;;;;;;;13.20;99.90;;;;;;5047459;28;19957;-89
2024/02/16 20:20:20;;;;;;;;;;;13.30;99.90;;;;;;5046872;28;19943;-89
2024/02/16 20:22:47;;;;;;;;;;;12.90;99.90;;;;;;5048593;28;19921;-88
2024/02/16 20:25:14;;;;;;;;;;;13.20;99.90;;;;;;5049932;28;20415;-88
2024/02/16 20:27:40;;;;;;;;;;;13.40;99.90;;;;;;5048970;28;20472;-87
2024/02/16 20:30:08;;;;;;;;;;;13.10;99.90;;;;;;5052722;28;19948;-86
2024/02/16 20:32:34;;;;;;;;;;;13.40;99.90;;;;;;5059758;28;19940;-87
2024/02/16 20:35:04;;;;;;;;;;;13.20;1.00;;;;;;5059062;28;19989;-86
2024/02/16 20:37:32;;;;;;;;;;;13.20;1.00;;;;;;5057941;28;19921;-87
2024/02/16 20:39:59;;;;;;;;;;;13.20;1.00;;;;;;5056837;28;19921;-87
2024/02/16 20:42:25;;;;;;;;;;;13.00;1.00;;;;;;5060523;28;20015;-88
2024/02/16 20:44:52;;;;;;;;;;;13.10;1.00;;;;;;5060442;28;19905;-88
2024/02/16 20:47:19;;;;;;;;;;;12.80;1.00;;;;;;5055471;28;19955;-87
2024/02/16 20:49:45;;;;;;;;;;;12.80;35.90;;;;;;5050745;28;19993;-88
2024/02/16 20:52:12;;;;;;;;;;;13.10;70.00;;;;;;5051886;28;20030;-87
2024/02/16 20:54:40;;;;;;;;;;;13.10;99.90;;;;;;5050812;28;19921;-86
2024/02/16 20:57:07;;;;;;;;;;;13.20;99.90;;;;;;5055564;28;19991;-88
2024/02/16 20:59:34;;;;;;;;;;;12.80;99.90;;;;;;5059548;28;19921;-87
2024/02/16 21:02:01;;;;;;;;;;;12.80;99.90;;;;;;5060035;28;19951;-89
2024/02/16 21:04:32;;;;;;;;;;;12.90;99.90;;;;;;5051957;28;19921;-86
2024/02/16 21:06:59;;;;;;;;;;;12.80;99.90;;;;;;5050162;28;19921;-88
2024/02/16 21:09:26;;;;;;;;;;;12.70;99.90;;;;;;5052532;28;19913;-87
2024/02/16 21:11:55;;;;;;;;;;;12.70;99.90;;;;;;5051328;28;19969;-87
2024/02/16 21:14:22;;;;;;;;;;;13.10;99.90;;;;;;5048976;28;20012;-89
2024/02/16 21:16:48;;;;;;;;;;;12.70;99.90;;;;;;5048565;28;20423;-88
2024/02/16 21:19:14;;;;;;;;;;;12.60;99.90;;;;;;5047315;28;19917;-88
2024/02/16 21:21:41;;;;;;;;;;;12.50;99.90;;;;;;5051213;28;19956;-88
2024/02/16 21:24:08;;;;;;;;;;;12.40;99.90;;;;;;5052257;28;19946;-89
2024/02/16 21:26:34;;;;;;;;;;;12.70;99.90;;;;;;5058427;28;19936;-88
2024/02/16 21:29:04;;;;;;;;;;;12.70;99.90;;;;;;5054153;28;19976;-88
2024/02/16 21:31:31;;;;;;;;;;;13.10;99.90;;;;;;5049902;28;19924;-89
2024/02/16 21:33:57;;;;;;;;;;;12.50;99.90;;;;;;5046259;28;19973;-88
2024/02/16 21:36:25;;;;;;;;;;;12.60;99.90;;;;;;5046903;28;19955;-88
2024/02/16 21:38:52;;;;;;;;;;;12.50;99.90;;;;;;5055965;28;19949;-87
2024/02/16 21:41:19;;;;;;;;;;;12.40;99.90;;;;;;5059767;28;19925;-88
2024/02/16 21:43:49;;;;;;;;;;;12.50;99.90;;;;;;5052130;28;19940;-88
2024/02/16 21:46:26;;;;;;;;;;;12.50;99.90;;;;;;5047037;28;20002;-88
2024/02/16 21:48:56;;;;;;;;;;;13.50;99.90;;;;;;5044129;28;19927;-88
2024/02/16 21:51:23;;;;;;;;;;;12.60;99.90;;;;;;5046746;28;19927;-88
2024/02/16 21:53:50;;;;;;;;;;;12.50;99.90;;;;;;5050782;28;20457;-88
2024/02/16 21:56:17;;;;;;;;;;;12.40;99.90;;;;;;5041753;28;20049;-88
2024/02/16 21:58:44;;;;;;;;;;;12.40;99.90;;;;;;5042167;28;20345;-88
2024/02/16 22:01:10;;;;;;;;;;;12.40;99.90;;;;;;5041255;28;19932;-88
2024/02/16 22:03:41;;;;;;;;;;;12.40;99.90;;;;;;5042066;28;19952;-87
2024/02/16 22:06:08;;;;;;;;;;;12.40;99.90;;;;;;5042862;28;20458;-88
2024/02/16 22:08:34;;;;;;;;;;;12.30;99.90;;;;;;5042580;28;19959;-88
2024/02/16 22:11:01;;;;;;;;;;;12.30;99.90;;;;;;5043583;28;19988;-88
2024/02/16 22:13:28;;;;;;;;;;;12.30;99.90;;;;;;5042158;28;20011;-87
2024/02/16 22:15:56;;;;;;;;;;;12.40;99.90;;;;;;5048429;28;19943;-87
2024/02/16 22:18:25;;;;;;;;;;;12.30;99.90;;;;;;5043025;28;19921;-87
2024/02/16 22:20:53;;;;;;;;;;;12.50;99.90;;;;;;5039945;28;19959;-88
2024/02/16 22:23:20;;;;;;;;;;;12.30;99.90;;;;;;5041379;28;20007;-89
2024/02/16 22:25:47;;;;;;;;;;;12.20;99.90;;;;;;5054703;28;19964;-88
2024/02/16 22:28:13;;;;;;;;;;;12.40;99.90;;;;;;5054920;28;19959;-87
2024/02/16 22:30:40;;;;;;;;;;;12.30;99.90;;;;;;5051478;28;19975;-88
2024/02/16 22:33:07;;;;;;;;;;;12.40;99.90;;;;;;5051490;28;19944;-87
2024/02/16 22:35:33;;;;;;;;;;;12.30;99.90;;;;;;5044084;28;19939;-88
2024/02/16 22:38:04;;;;;;;;;;;12.20;99.90;;;;;;5040360;28;19948;-88
2024/02/16 22:40:31;;;;;;;;;;;12.30;99.90;;;;;;5040232;28;20301;-88
2024/02/16 22:42:58;;;;;;;;;;;12.30;99.90;;;;;;5038541;28;20005;-88
2024/02/16 22:45:24;;;;;;;;;;;12.10;99.90;;;;;;5038696;28;19983;-86
2024/02/16 22:47:51;;;;;;;;;;;12.10;99.90;;;;;;5039105;28;20321;-88
2024/02/16 22:50:18;;;;;;;;;;;12.20;99.90;;;;;;5040824;28;19939;-86
2024/02/16 22:52:45;;;;;;;;;;;12.10;99.90;;;;;;5040887;28;19912;-86
2024/02/16 22:55:13;;;;;;;;;;;12.10;99.90;;;;;;5040706;28;19998;-88
2024/02/16 22:57:40;;;;;;;;;;;12.20;99.90;;;;;;5038095;28;19956;-88
2024/02/16 23:00:17;;;;;;;;;;;12.50;99.90;;;;;;5037528;28;19925;-88
2024/02/16 23:02:44;;;;;;;;;;;12.30;99.90;;;;;;5038189;28;20021;-88
2024/02/16 23:05:11;;;;;;;;;;;12.10;99.90;;;;;;5052271;28;19912;-88
2024/02/16 23:07:37;;;;;;;;;;;12.10;99.90;;;;;;5036743;28;20015;-88
2024/02/16 23:10:05;;;;;;;;;;;12.20;99.90;;;;;;5037026;28;20043;-88
2024/02/16 23:12:33;;;;;;;;;;;12.10;99.90;;;;;;5037184;28;19921;-88
2024/02/16 23:15:01;;;;;;;;;;;12.20;99.90;;;;;;5051459;28;19969;-87
2024/02/16 23:17:27;;;;;;;;;;;12.00;99.90;;;;;;5045271;28;20386;-88
2024/02/16 23:19:54;;;;;;;;;;;12.00;99.90;;;;;;5044745;28;19960;-88
2024/02/16 23:22:21;;;;;;;;;;;12.00;99.90;;;;;;5041151;28;19921;-88
2024/02/16 23:24:48;;;;;;;;;;;11.80;99.90;;;;;;5038842;28;19921;-88
2024/02/16 23:27:14;;;;;;;;;;;12.00;99.90;;;;;;5044428;28;19939;-88
2024/02/16 23:29:43;;;;;;;;;;;12.00;99.90;;;;;;5052442;28;19949;-88
2024/02/16 23:32:09;;;;;;;;;;;12.00;99.90;;;;;;5045711;28;19921;-87
2024/02/16 23:34:36;;;;;;;;;;;11.90;99.90;;;;;;5049506;28;19937;-86
2024/02/16 23:37:03;;;;;;;;;;;11.90;99.90;;;;;;5040156;28;20349;-87
2024/02/16 23:39:29;;;;;;;;;;;12.00;99.90;;;;;;5041443;28;20016;-88
2024/02/16 23:41:58;;;;;;;;;;;11.90;99.90;;;;;;5040172;28;19953;-88
2024/02/16 23:44:25;;;;;;;;;;;12.20;99.90;;;;;;5040123;28;20092;-87
